sensor_id;sensor_type;location;lat;lon;timestamp;P1;durP1;ratioP1;P2;durP2;ratioP2
11427;SDS011;5770;44.504;11.346;2022-07-06T00:01:38;9.50;;;6.35;;
11427;SDS011;5770;44.504;11.346;2022-07-06T00:04:05;10.60;;;6.32;;
11427;SDS011;5770;44.504;11.346;2022-07-06T00:06:32;9.50;;;6.13;;
11427;SDS011;5770;44.504;11.346;2022-07-06T00:09:00;9.82;;;5.82;;
11427;SDS011;5770;44.504;11.346;2022-07-06T00:11:28;10.70;;;6.45;;
11427;SDS011;5770;44.504;11.346;2022-07-06T00:13:57;10.32;;;7.95;;
11427;SDS011;5770;44.504;11.346;2022-07-06T00:16:26;12.45;;;7.07;;
11427;SDS011;5770;44.504;11.346;2022-07-06T00:18:53;9.93;;;6.45;;
11427;SDS011;5770;44.504;11.346;2022-07-06T00:21:22;14.70;;;7.07;;
11427;SDS011;5770;44.504;11.346;2022-07-06T00:23:50;10.48;;;6.93;;
11427;SDS011;5770;44.504;11.346;2022-07-06T00:26:18;13.35;;;7.35;;
11427;SDS011;5770;44.504;11.346;2022-07-06T00:28:45;10.85;;;7.53;;
11427;SDS011;5770;44.504;11.346;2022-07-06T00:31:14;11.75;;;7.53;;
11427;SDS011;5770;44.504;11.346;2022-07-06T00:33:41;8.27;;;7.18;;
11427;SDS011;5770;44.504;11.346;2022-07-06T00:36:08;10.82;;;7.15;;
11427;SDS011;5770;44.504;11.346;2022-07-06T00:38:35;11.48;;;7.00;;
11427;SDS011;5770;44.504;11.346;2022-07-06T00:41:03;12.73;;;6.93;;
11427;SDS011;5770;44.504;11.346;2022-07-06T00:46:14;9.93;;;7.40;;
11427;SDS011;5770;44.504;11.346;2022-07-06T00:48:41;8.50;;;7.22;;
11427;SDS011;5770;44.504;11.346;2022-07-06T00:51:09;8.40;;;7.50;;
11427;SDS011;5770;44.504;11.346;2022-07-06T00:53:37;8.25;;;6.63;;
11427;SDS011;5770;44.504;11.346;2022-07-06T00:56:05;8.45;;;6.50;;
11427;SDS011;5770;44.504;11.346;2022-07-06T00:58:32;13.05;;;6.10;;
11427;SDS011;5770;44.504;11.346;2022-07-06T01:00:59;10.20;;;5.85;;
11427;SDS011;5770;44.504;11.346;2022-07-06T01:03:28;9.15;;;5.43;;
11427;SDS011;5770;44.504;11.346;2022-07-06T01:05:55;7.00;;;5.38;;
11427;SDS011;5770;44.504;11.346;2022-07-06T01:08:25;8.77;;;4.78;;
11427;SDS011;5770;44.504;11.346;2022-07-06T01:10:53;9.25;;;4.90;;
11427;SDS011;5770;44.504;11.346;2022-07-06T01:13:21;7.40;;;4.35;;
11427;SDS011;5770;44.504;11.346;2022-07-06T01:15:48;5.75;;;4.32;;
11427;SDS011;5770;44.504;11.346;2022-07-06T01:18:15;5.45;;;4.90;;
11427;SDS011;5770;44.504;11.346;2022-07-06T01:20:44;7.55;;;4.35;;
11427;SDS011;5770;44.504;11.346;2022-07-06T01:23:11;6.28;;;4.82;;
11427;SDS011;5770;44.504;11.346;2022-07-06T01:25:38;5.82;;;3.95;;
11427;SDS011;5770;44.504;11.346;2022-07-06T01:28:06;6.38;;;5.05;;
11427;SDS011;5770;44.504;11.346;2022-07-06T01:30:33;8.73;;;4.22;;
11427;SDS011;5770;44.504;11.346;2022-07-06T01:33:00;6.93;;;3.75;;
11427;SDS011;5770;44.504;11.346;2022-07-06T01:35:27;4.05;;;3.75;;
11427;SDS011;5770;44.504;11.346;2022-07-06T01:37:59;5.53;;;3.95;;
11427;SDS011;5770;44.504;11.346;2022-07-06T01:40:26;7.47;;;3.88;;
11427;SDS011;5770;44.504;11.346;2022-07-06T01:42:53;6.82;;;4.00;;
11427;SDS011;5770;44.504;11.346;2022-07-06T01:45:20;8.23;;;3.63;;
11427;SDS011;5770;44.504;11.346;2022-07-06T01:47:47;6.32;;;3.72;;
11427;SDS011;5770;44.504;11.346;2022-07-06T01:50:14;4.43;;;3.10;;
11427;SDS011;5770;44.504;11.346;2022-07-06T01:52:41;4.65;;;3.70;;
11427;SDS011;5770;44.504;11.346;2022-07-06T01:55:10;5.88;;;3.28;;
11427;SDS011;5770;44.504;11.346;2022-07-06T01:57:37;5.22;;;3.03;;
11427;SDS011;5770;44.504;11.346;2022-07-06T02:00:05;4.30;;;3.38;;
11427;SDS011;5770;44.504;11.346;2022-07-06T02:02:33;7.40;;;3.38;;
11427;SDS011;5770;44.504;11.346;2022-07-06T02:05:00;4.45;;;3.20;;
11427;SDS011;5770;44.504;11.346;2022-07-06T02:07:27;6.47;;;2.75;;
11427;SDS011;5770;44.504;11.346;2022-07-06T02:09:54;4.65;;;2.90;;
11427;SDS011;5770;44.504;11.346;2022-07-06T02:12:22;4.35;;;2.90;;
11427;SDS011;5770;44.504;11.346;2022-07-06T02:14:49;4.95;;;2.67;;
11427;SDS011;5770;44.504;11.346;2022-07-06T02:17:16;3.33;;;2.55;;
11427;SDS011;5770;44.504;11.346;2022-07-06T02:19:44;4.72;;;2.60;;
11427;SDS011;5770;44.504;11.346;2022-07-06T02:22:11;5.72;;;2.50;;
11427;SDS011;5770;44.504;11.346;2022-07-06T02:24:38;7.07;;;2.60;;
11427;SDS011;5770;44.504;11.346;2022-07-06T02:27:05;7.93;;;2.88;;
11427;SDS011;5770;44.504;11.346;2022-07-06T02:29:35;8.13;;;3.00;;
11427;SDS011;5770;44.504;11.346;2022-07-06T02:32:03;2.88;;;2.53;;
11427;SDS011;5770;44.504;11.346;2022-07-06T02:34:30;7.05;;;2.90;;
11427;SDS011;5770;44.504;11.346;2022-07-06T02:36:57;5.88;;;3.20;;
11427;SDS011;5770;44.504;11.346;2022-07-06T02:39:25;6.57;;;2.90;;
11427;SDS011;5770;44.504;11.346;2022-07-06T02:41:52;9.75;;;2.78;;
11427;SDS011;5770;44.504;11.346;2022-07-06T02:44:19;2.67;;;2.42;;
11427;SDS011;5770;44.504;11.346;2022-07-06T02:46:48;7.00;;;2.63;;
11427;SDS011;5770;44.504;11.346;2022-07-06T02:49:15;4.30;;;2.67;;
11427;SDS011;5770;44.504;11.346;2022-07-06T02:51:42;4.70;;;2.65;;
11427;SDS011;5770;44.504;11.346;2022-07-06T02:54:09;6.50;;;2.95;;
11427;SDS011;5770;44.504;11.346;2022-07-06T02:56:36;4.00;;;2.60;;
11427;SDS011;5770;44.504;11.346;2022-07-06T02:59:06;4.20;;;2.33;;
11427;SDS011;5770;44.504;11.346;2022-07-06T03:01:33;5.97;;;3.05;;
11427;SDS011;5770;44.504;11.346;2022-07-06T03:04:04;5.53;;;2.63;;
11427;SDS011;5770;44.504;11.346;2022-07-06T03:06:31;5.07;;;3.10;;
11427;SDS011;5770;44.504;11.346;2022-07-06T03:08:58;9.57;;;3.05;;
11427;SDS011;5770;44.504;11.346;2022-07-06T03:11:26;6.88;;;3.05;;
11427;SDS011;5770;44.504;11.346;2022-07-06T03:13:53;6.65;;;2.90;;
11427;SDS011;5770;44.504;11.346;2022-07-06T03:16:21;6.43;;;2.88;;
11427;SDS011;5770;44.504;11.346;2022-07-06T03:18:49;7.75;;;3.15;;
11427;SDS011;5770;44.504;11.346;2022-07-06T03:21:17;8.88;;;3.10;;
11427;SDS011;5770;44.504;11.346;2022-07-06T03:23:44;4.38;;;2.58;;
11427;SDS011;5770;44.504;11.346;2022-07-06T03:26:12;7.30;;;2.97;;
11427;SDS011;5770;44.504;11.346;2022-07-06T03:28:39;3.63;;;2.88;;
11427;SDS011;5770;44.504;11.346;2022-07-06T03:31:06;3.95;;;2.67;;
11427;SDS011;5770;44.504;11.346;2022-07-06T03:33:33;7.63;;;2.97;;
11427;SDS011;5770;44.504;11.346;2022-07-06T03:36:00;10.43;;;3.10;;
11427;SDS011;5770;44.504;11.346;2022-07-06T03:38:28;6.13;;;2.72;;
11427;SDS011;5770;44.504;11.346;2022-07-06T03:40:55;4.72;;;2.40;;
11427;SDS011;5770;44.504;11.346;2022-07-06T03:43:23;4.57;;;2.47;;
11427;SDS011;5770;44.504;11.346;2022-07-06T03:45:50;5.82;;;3.30;;
11427;SDS011;5770;44.504;11.346;2022-07-06T03:48:17;8.32;;;2.58;;
11427;SDS011;5770;44.504;11.346;2022-07-06T03:50:44;3.67;;;2.50;;
11427;SDS011;5770;44.504;11.346;2022-07-06T03:53:11;8.23;;;2.50;;
11427;SDS011;5770;44.504;11.346;2022-07-06T03:55:40;8.13;;;2.20;;
11427;SDS011;5770;44.504;11.346;2022-07-06T03:58:07;6.10;;;2.30;;
11427;SDS011;5770;44.504;11.346;2022-07-06T04:00:34;8.68;;;2.20;;
11427;SDS011;5770;44.504;11.346;2022-07-06T04:03:01;9.95;;;3.17;;
11427;SDS011;5770;44.504;11.346;2022-07-06T04:05:29;3.60;;;2.20;;
11427;SDS011;5770;44.504;11.346;2022-07-06T04:07:56;4.93;;;1.80;;
11427;SDS011;5770;44.504;11.346;2022-07-06T04:10:23;3.95;;;2.17;;
11427;SDS011;5770;44.504;11.346;2022-07-06T04:12:52;6.20;;;2.20;;
11427;SDS011;5770;44.504;11.346;2022-07-06T04:15:19;5.40;;;2.33;;
11427;SDS011;5770;44.504;11.346;2022-07-06T04:17:46;7.15;;;2.35;;
11427;SDS011;5770;44.504;11.346;2022-07-06T04:20:21;5.00;;;2.22;;
11427;SDS011;5770;44.504;11.346;2022-07-06T04:22:50;4.82;;;2.30;;
11427;SDS011;5770;44.504;11.346;2022-07-06T04:25:18;5.18;;;2.10;;
11427;SDS011;5770;44.504;11.346;2022-07-06T04:27:45;6.97;;;2.08;;
11427;SDS011;5770;44.504;11.346;2022-07-06T04:30:14;6.20;;;1.80;;
11427;SDS011;5770;44.504;11.346;2022-07-06T04:32:41;4.40;;;2.40;;
11427;SDS011;5770;44.504;11.346;2022-07-06T04:35:08;5.72;;;1.92;;
11427;SDS011;5770;44.504;11.346;2022-07-06T04:37:38;4.15;;;2.20;;
11427;SDS011;5770;44.504;11.346;2022-07-06T04:40:05;6.82;;;2.00;;
11427;SDS011;5770;44.504;11.346;2022-07-06T04:42:33;3.92;;;1.75;;
11427;SDS011;5770;44.504;11.346;2022-07-06T04:45:00;5.88;;;2.03;;
11427;SDS011;5770;44.504;11.346;2022-07-06T04:47:29;5.95;;;2.13;;
11427;SDS011;5770;44.504;11.346;2022-07-06T04:49:56;8.20;;;2.22;;
11427;SDS011;5770;44.504;11.346;2022-07-06T04:52:26;5.47;;;2.05;;
11427;SDS011;5770;44.504;11.346;2022-07-06T04:54:54;6.38;;;2.25;;
11427;SDS011;5770;44.504;11.346;2022-07-06T04:57:21;7.75;;;2.65;;
11427;SDS011;5770;44.504;11.346;2022-07-06T04:59:50;8.75;;;2.40;;
11427;SDS011;5770;44.504;11.346;2022-07-06T05:02:17;7.95;;;2.10;;
11427;SDS011;5770;44.504;11.346;2022-07-06T05:04:46;6.95;;;2.30;;
11427;SDS011;5770;44.504;11.346;2022-07-06T05:07:13;11.38;;;2.33;;
11427;SDS011;5770;44.504;11.346;2022-07-06T05:09:40;5.40;;;2.28;;
11427;SDS011;5770;44.504;11.346;2022-07-06T05:12:08;5.90;;;2.42;;
11427;SDS011;5770;44.504;11.346;2022-07-06T05:14:36;3.90;;;1.98;;
11427;SDS011;5770;44.504;11.346;2022-07-06T05:17:03;4.28;;;1.92;;
11427;SDS011;5770;44.504;11.346;2022-07-06T05:19:30;3.67;;;2.03;;
11427;SDS011;5770;44.504;11.346;2022-07-06T05:21:59;3.35;;;1.98;;
11427;SDS011;5770;44.504;11.346;2022-07-06T05:24:26;5.60;;;2.13;;
11427;SDS011;5770;44.504;11.346;2022-07-06T05:26:53;5.03;;;2.10;;
11427;SDS011;5770;44.504;11.346;2022-07-06T05:29:20;4.78;;;2.03;;
11427;SDS011;5770;44.504;11.346;2022-07-06T05:31:47;5.95;;;2.47;;
11427;SDS011;5770;44.504;11.346;2022-07-06T05:34:15;6.00;;;2.30;;
11427;SDS011;5770;44.504;11.346;2022-07-06T05:36:42;3.65;;;2.30;;
11427;SDS011;5770;44.504;11.346;2022-07-06T05:39:11;5.85;;;1.95;;
11427;SDS011;5770;44.504;11.346;2022-07-06T05:41:38;4.90;;;2.00;;
11427;SDS011;5770;44.504;11.346;2022-07-06T05:44:05;5.15;;;2.35;;
11427;SDS011;5770;44.504;11.346;2022-07-06T05:46:32;7.00;;;2.58;;
11427;SDS011;5770;44.504;11.346;2022-07-06T05:49:02;6.55;;;1.92;;
11427;SDS011;5770;44.504;11.346;2022-07-06T05:51:46;5.18;;;1.85;;
11427;SDS011;5770;44.504;11.346;2022-07-06T05:54:16;4.97;;;2.50;;
11427;SDS011;5770;44.504;11.346;2022-07-06T05:56:43;8.73;;;2.22;;
11427;SDS011;5770;44.504;11.346;2022-07-06T05:59:10;7.25;;;2.20;;
11427;SDS011;5770;44.504;11.346;2022-07-06T06:01:37;4.88;;;2.15;;
11427;SDS011;5770;44.504;11.346;2022-07-06T06:04:04;7.10;;;2.20;;
11427;SDS011;5770;44.504;11.346;2022-07-06T06:06:31;4.88;;;2.05;;
11427;SDS011;5770;44.504;11.346;2022-07-06T06:08:58;5.82;;;1.80;;
11427;SDS011;5770;44.504;11.346;2022-07-06T06:11:27;10.70;;;2.20;;
11427;SDS011;5770;44.504;11.346;2022-07-06T06:13:54;7.35;;;1.88;;
11427;SDS011;5770;44.504;11.346;2022-07-06T06:16:21;9.00;;;2.40;;
11427;SDS011;5770;44.504;11.346;2022-07-06T06:18:48;6.47;;;2.67;;
11427;SDS011;5770;44.504;11.346;2022-07-06T06:21:15;6.75;;;1.83;;
11427;SDS011;5770;44.504;11.346;2022-07-06T06:23:42;7.57;;;2.05;;
11427;SDS011;5770;44.504;11.346;2022-07-06T06:26:09;5.60;;;1.90;;
11427;SDS011;5770;44.504;11.346;2022-07-06T06:28:38;3.60;;;1.85;;
11427;SDS011;5770;44.504;11.346;2022-07-06T06:31:06;8.25;;;2.00;;
11427;SDS011;5770;44.504;11.346;2022-07-06T06:33:34;7.70;;;2.08;;
11427;SDS011;5770;44.504;11.346;2022-07-06T06:36:01;10.05;;;2.38;;
11427;SDS011;5770;44.504;11.346;2022-07-06T06:38:28;7.05;;;1.95;;
11427;SDS011;5770;44.504;11.346;2022-07-06T06:40:55;9.90;;;2.22;;
11427;SDS011;5770;44.504;11.346;2022-07-06T06:43:24;6.53;;;2.00;;
11427;SDS011;5770;44.504;11.346;2022-07-06T06:45:53;5.32;;;1.85;;
11427;SDS011;5770;44.504;11.346;2022-07-06T06:48:23;8.10;;;1.90;;
11427;SDS011;5770;44.504;11.346;2022-07-06T06:50:50;6.72;;;1.90;;
11427;SDS011;5770;44.504;11.346;2022-07-06T06:53:20;7.32;;;2.30;;
11427;SDS011;5770;44.504;11.346;2022-07-06T06:55:47;8.48;;;2.30;;
11427;SDS011;5770;44.504;11.346;2022-07-06T06:58:14;5.65;;;2.00;;
11427;SDS011;5770;44.504;11.346;2022-07-06T07:00:41;6.25;;;2.25;;
11427;SDS011;5770;44.504;11.346;2022-07-06T07:03:11;10.77;;;2.35;;
11427;SDS011;5770;44.504;11.346;2022-07-06T07:05:38;9.80;;;2.58;;
11427;SDS011;5770;44.504;11.346;2022-07-06T07:08:05;4.05;;;1.83;;
11427;SDS011;5770;44.504;11.346;2022-07-06T07:10:33;3.15;;;2.15;;
11427;SDS011;5770;44.504;11.346;2022-07-06T07:13:00;7.30;;;2.22;;
11427;SDS011;5770;44.504;11.346;2022-07-06T07:15:29;5.25;;;2.15;;
11427;SDS011;5770;44.504;11.346;2022-07-06T07:17:56;6.97;;;1.77;;
11427;SDS011;5770;44.504;11.346;2022-07-06T07:20:25;5.55;;;2.20;;
11427;SDS011;5770;44.504;11.346;2022-07-06T07:22:54;5.18;;;2.00;;
11427;SDS011;5770;44.504;11.346;2022-07-06T07:25:22;10.15;;;2.53;;
11427;SDS011;5770;44.504;11.346;2022-07-06T07:27:51;9.25;;;1.95;;
11427;SDS011;5770;44.504;11.346;2022-07-06T07:30:18;8.80;;;2.10;;
11427;SDS011;5770;44.504;11.346;2022-07-06T07:32:45;5.35;;;1.98;;
11427;SDS011;5770;44.504;11.346;2022-07-06T07:35:13;4.60;;;1.92;;
11427;SDS011;5770;44.504;11.346;2022-07-06T07:37:41;7.47;;;2.17;;
11427;SDS011;5770;44.504;11.346;2022-07-06T07:40:09;8.57;;;2.42;;
11427;SDS011;5770;44.504;11.346;2022-07-06T07:42:36;6.50;;;2.17;;
11427;SDS011;5770;44.504;11.346;2022-07-06T07:45:05;6.82;;;2.33;;
11427;SDS011;5770;44.504;11.346;2022-07-06T07:47:33;6.55;;;2.35;;
11427;SDS011;5770;44.504;11.346;2022-07-06T07:50:00;9.55;;;2.10;;
11427;SDS011;5770;44.504;11.346;2022-07-06T07:52:28;13.38;;;2.47;;
11427;SDS011;5770;44.504;11.346;2022-07-06T07:54:56;9.15;;;2.60;;
11427;SDS011;5770;44.504;11.346;2022-07-06T07:57:23;5.55;;;2.05;;
11427;SDS011;5770;44.504;11.346;2022-07-06T07:59:50;6.57;;;2.47;;
11427;SDS011;5770;44.504;11.346;2022-07-06T08:02:17;3.25;;;2.10;;
11427;SDS011;5770;44.504;11.346;2022-07-06T08:04:44;6.32;;;2.00;;
11427;SDS011;5770;44.504;11.346;2022-07-06T08:07:12;4.13;;;2.40;;
11427;SDS011;5770;44.504;11.346;2022-07-06T08:09:39;6.65;;;1.95;;
11427;SDS011;5770;44.504;11.346;2022-07-06T08:12:08;7.53;;;2.40;;
11427;SDS011;5770;44.504;11.346;2022-07-06T08:14:37;5.45;;;2.08;;
11427;SDS011;5770;44.504;11.346;2022-07-06T08:17:04;5.68;;;2.20;;
11427;SDS011;5770;44.504;11.346;2022-07-06T08:19:31;6.53;;;2.22;;
11427;SDS011;5770;44.504;11.346;2022-07-06T08:21:59;5.85;;;1.88;;
11427;SDS011;5770;44.504;11.346;2022-07-06T08:24:31;11.88;;;2.55;;
11427;SDS011;5770;44.504;11.346;2022-07-06T08:26:59;6.35;;;2.03;;
11427;SDS011;5770;44.504;11.346;2022-07-06T08:29:27;7.50;;;2.22;;
11427;SDS011;5770;44.504;11.346;2022-07-06T08:31:55;6.68;;;2.00;;
11427;SDS011;5770;44.504;11.346;2022-07-06T08:34:22;11.18;;;2.38;;
11427;SDS011;5770;44.504;11.346;2022-07-06T08:36:49;5.60;;;2.10;;
11427;SDS011;5770;44.504;11.346;2022-07-06T08:39:16;13.77;;;2.45;;
11427;SDS011;5770;44.504;11.346;2022-07-06T08:41:44;6.95;;;2.00;;
11427;SDS011;5770;44.504;11.346;2022-07-06T08:44:13;6.97;;;2.10;;
11427;SDS011;5770;44.504;11.346;2022-07-06T08:46:41;6.25;;;2.30;;
11427;SDS011;5770;44.504;11.346;2022-07-06T08:49:12;6.68;;;1.90;;
11427;SDS011;5770;44.504;11.346;2022-07-06T08:51:40;5.85;;;2.17;;
11427;SDS011;5770;44.504;11.346;2022-07-06T08:54:08;7.43;;;2.10;;
11427;SDS011;5770;44.504;11.346;2022-07-06T08:56:40;8.05;;;2.13;;
11427;SDS011;5770;44.504;11.346;2022-07-06T08:59:07;7.32;;;2.10;;
11427;SDS011;5770;44.504;11.346;2022-07-06T09:01:36;6.20;;;2.47;;
11427;SDS011;5770;44.504;11.346;2022-07-06T09:04:06;12.77;;;2.45;;
11427;SDS011;5770;44.504;11.346;2022-07-06T09:06:35;6.75;;;2.45;;
11427;SDS011;5770;44.504;11.346;2022-07-06T09:09:04;8.15;;;2.30;;
11427;SDS011;5770;44.504;11.346;2022-07-06T09:11:32;7.20;;;2.42;;
11427;SDS011;5770;44.504;11.346;2022-07-06T09:14:00;11.30;;;2.58;;
11427;SDS011;5770;44.504;11.346;2022-07-06T09:16:30;5.45;;;2.45;;
11427;SDS011;5770;44.504;11.346;2022-07-06T09:18:58;2.53;;;1.80;;
11427;SDS011;5770;44.504;11.346;2022-07-06T09:21:27;4.80;;;1.95;;
11427;SDS011;5770;44.504;11.346;2022-07-06T09:23:57;5.93;;;2.35;;
11427;SDS011;5770;44.504;11.346;2022-07-06T09:26:25;5.32;;;2.40;;
11427;SDS011;5770;44.504;11.346;2022-07-06T09:28:54;3.67;;;2.25;;
11427;SDS011;5770;44.504;11.346;2022-07-06T09:31:22;6.10;;;2.33;;
11427;SDS011;5770;44.504;11.346;2022-07-06T09:33:55;3.78;;;1.95;;
11427;SDS011;5770;44.504;11.346;2022-07-06T09:36:39;6.70;;;2.28;;
11427;SDS011;5770;44.504;11.346;2022-07-06T09:39:14;6.38;;;2.70;;
11427;SDS011;5770;44.504;11.346;2022-07-06T09:41:42;12.82;;;2.40;;
11427;SDS011;5770;44.504;11.346;2022-07-06T09:44:10;11.02;;;2.80;;
11427;SDS011;5770;44.504;11.346;2022-07-06T09:46:37;5.20;;;2.40;;
11427;SDS011;5770;44.504;11.346;2022-07-06T09:49:06;4.25;;;2.30;;
11427;SDS011;5770;44.504;11.346;2022-07-06T09:51:35;6.40;;;2.38;;
11427;SDS011;5770;44.504;11.346;2022-07-06T09:54:05;5.35;;;2.28;;
11427;SDS011;5770;44.504;11.346;2022-07-06T09:56:36;9.90;;;2.80;;
11427;SDS011;5770;44.504;11.346;2022-07-06T09:59:14;4.22;;;2.60;;
11427;SDS011;5770;44.504;11.346;2022-07-06T10:01:42;5.93;;;2.50;;
11427;SDS011;5770;44.504;11.346;2022-07-06T10:04:10;6.95;;;2.40;;
11427;SDS011;5770;44.504;11.346;2022-07-06T10:06:40;7.85;;;2.50;;
11427;SDS011;5770;44.504;11.346;2022-07-06T10:09:09;5.97;;;2.50;;
11427;SDS011;5770;44.504;11.346;2022-07-06T10:11:37;7.55;;;2.70;;
11427;SDS011;5770;44.504;11.346;2022-07-06T10:14:05;6.10;;;2.72;;
11427;SDS011;5770;44.504;11.346;2022-07-06T10:16:33;14.32;;;2.92;;
11427;SDS011;5770;44.504;11.346;2022-07-06T10:19:02;7.38;;;2.60;;
11427;SDS011;5770;44.504;11.346;2022-07-06T10:21:31;4.45;;;2.30;;
11427;SDS011;5770;44.504;11.346;2022-07-06T10:23:59;4.53;;;2.20;;
11427;SDS011;5770;44.504;11.346;2022-07-06T10:26:29;10.52;;;2.55;;
11427;SDS011;5770;44.504;11.346;2022-07-06T10:28:57;10.40;;;2.35;;
11427;SDS011;5770;44.504;11.346;2022-07-06T10:31:25;5.10;;;2.20;;
11427;SDS011;5770;44.504;11.346;2022-07-06T10:33:55;3.95;;;1.80;;
11427;SDS011;5770;44.504;11.346;2022-07-06T10:36:23;5.22;;;2.35;;
11427;SDS011;5770;44.504;11.346;2022-07-06T10:38:51;5.13;;;2.30;;
11427;SDS011;5770;44.504;11.346;2022-07-06T10:41:29;4.78;;;2.30;;
11427;SDS011;5770;44.504;11.346;2022-07-06T10:43:58;6.55;;;2.15;;
11427;SDS011;5770;44.504;11.346;2022-07-06T10:46:41;9.55;;;2.05;;
11427;SDS011;5770;44.504;11.346;2022-07-06T10:51:47;14.27;;;2.90;;
11427;SDS011;5770;44.504;11.346;2022-07-06T10:54:16;7.50;;;1.70;;
11427;SDS011;5770;44.504;11.346;2022-07-06T10:56:46;5.88;;;2.10;;
11427;SDS011;5770;44.504;11.346;2022-07-06T10:59:15;5.00;;;2.00;;
11427;SDS011;5770;44.504;11.346;2022-07-06T11:04:40;3.33;;;1.88;;
11427;SDS011;5770;44.504;11.346;2022-07-06T11:07:09;3.70;;;1.80;;
11427;SDS011;5770;44.504;11.346;2022-07-06T11:09:37;3.80;;;2.30;;
11427;SDS011;5770;44.504;11.346;2022-07-06T11:12:16;5.30;;;1.98;;
11427;SDS011;5770;44.504;11.346;2022-07-06T11:14:45;3.90;;;1.90;;
11427;SDS011;5770;44.504;11.346;2022-07-06T11:17:12;10.85;;;2.08;;
11427;SDS011;5770;44.504;11.346;2022-07-06T11:19:47;2.45;;;1.95;;
11427;SDS011;5770;44.504;11.346;2022-07-06T11:22:16;2.75;;;1.88;;
11427;SDS011;5770;44.504;11.346;2022-07-06T11:24:45;4.07;;;1.70;;
11427;SDS011;5770;44.504;11.346;2022-07-06T11:27:12;3.67;;;2.00;;
11427;SDS011;5770;44.504;11.346;2022-07-06T11:29:41;2.25;;;1.92;;
11427;SDS011;5770;44.504;11.346;2022-07-06T11:32:10;2.47;;;1.70;;
11427;SDS011;5770;44.504;11.346;2022-07-06T11:34:39;2.65;;;1.88;;
11427;SDS011;5770;44.504;11.346;2022-07-06T11:37:08;3.38;;;1.80;;
11427;SDS011;5770;44.504;11.346;2022-07-06T11:39:38;4.03;;;1.95;;
11427;SDS011;5770;44.504;11.346;2022-07-06T11:42:06;4.10;;;2.00;;
11427;SDS011;5770;44.504;11.346;2022-07-06T11:44:35;3.75;;;1.77;;
11427;SDS011;5770;44.504;11.346;2022-07-06T11:47:05;2.67;;;1.83;;
11427;SDS011;5770;44.504;11.346;2022-07-06T11:49:33;4.60;;;1.80;;
11427;SDS011;5770;44.504;11.346;2022-07-06T11:52:04;4.32;;;2.05;;
11427;SDS011;5770;44.504;11.346;2022-07-06T11:54:32;4.63;;;2.15;;
11427;SDS011;5770;44.504;11.346;2022-07-06T11:57:00;4.22;;;1.98;;
11427;SDS011;5770;44.504;11.346;2022-07-06T11:59:29;5.53;;;1.65;;
11427;SDS011;5770;44.504;11.346;2022-07-06T12:01:58;3.90;;;2.00;;
11427;SDS011;5770;44.504;11.346;2022-07-06T12:04:26;3.25;;;1.88;;
11427;SDS011;5770;44.504;11.346;2022-07-06T12:06:54;3.33;;;1.75;;
11427;SDS011;5770;44.504;11.346;2022-07-06T12:09:22;3.65;;;1.92;;
11427;SDS011;5770;44.504;11.346;2022-07-06T12:11:49;3.45;;;1.60;;
11427;SDS011;5770;44.504;11.346;2022-07-06T12:14:16;4.63;;;1.85;;
11427;SDS011;5770;44.504;11.346;2022-07-06T12:16:45;4.60;;;1.85;;
11427;SDS011;5770;44.504;11.346;2022-07-06T12:19:13;5.15;;;1.80;;
11427;SDS011;5770;44.504;11.346;2022-07-06T12:21:46;2.95;;;1.77;;
11427;SDS011;5770;44.504;11.346;2022-07-06T12:24:17;7.10;;;2.08;;
11427;SDS011;5770;44.504;11.346;2022-07-06T12:26:45;4.43;;;1.88;;
11427;SDS011;5770;44.504;11.346;2022-07-06T12:29:13;5.30;;;1.92;;
11427;SDS011;5770;44.504;11.346;2022-07-06T12:31:41;5.05;;;1.90;;
11427;SDS011;5770;44.504;11.346;2022-07-06T12:34:12;4.25;;;1.95;;
11427;SDS011;5770;44.504;11.346;2022-07-06T12:36:42;3.20;;;1.92;;
11427;SDS011;5770;44.504;11.346;2022-07-06T12:39:12;4.57;;;2.10;;
11427;SDS011;5770;44.504;11.346;2022-07-06T12:41:43;4.32;;;2.17;;
11427;SDS011;5770;44.504;11.346;2022-07-06T12:44:12;5.65;;;1.77;;
11427;SDS011;5770;44.504;11.346;2022-07-06T12:46:40;2.22;;;1.80;;
11427;SDS011;5770;44.504;11.346;2022-07-06T12:49:11;4.70;;;2.05;;
11427;SDS011;5770;44.504;11.346;2022-07-06T12:51:58;3.60;;;2.38;;
11427;SDS011;5770;44.504;11.346;2022-07-06T12:54:28;3.55;;;2.00;;
11427;SDS011;5770;44.504;11.346;2022-07-06T12:57:06;4.45;;;2.30;;
11427;SDS011;5770;44.504;11.346;2022-07-06T12:59:38;4.07;;;2.20;;
11427;SDS011;5770;44.504;11.346;2022-07-06T13:02:08;8.30;;;2.20;;
11427;SDS011;5770;44.504;11.346;2022-07-06T13:04:36;2.90;;;1.95;;
11427;SDS011;5770;44.504;11.346;2022-07-06T13:07:05;3.50;;;2.00;;
11427;SDS011;5770;44.504;11.346;2022-07-06T13:09:32;5.80;;;3.42;;
11427;SDS011;5770;44.504;11.346;2022-07-06T13:11:59;3.55;;;2.42;;
11427;SDS011;5770;44.504;11.346;2022-07-06T13:14:26;6.18;;;2.38;;
11427;SDS011;5770;44.504;11.346;2022-07-06T13:16:53;2.67;;;2.40;;
11427;SDS011;5770;44.504;11.346;2022-07-06T13:19:20;5.88;;;2.55;;
11427;SDS011;5770;44.504;11.346;2022-07-06T13:21:48;7.68;;;2.25;;
11427;SDS011;5770;44.504;11.346;2022-07-06T13:24:16;8.57;;;2.13;;
11427;SDS011;5770;44.504;11.346;2022-07-06T13:26:43;4.95;;;1.85;;
11427;SDS011;5770;44.504;11.346;2022-07-06T13:29:12;4.80;;;1.95;;
11427;SDS011;5770;44.504;11.346;2022-07-06T13:31:40;3.00;;;1.95;;
11427;SDS011;5770;44.504;11.346;2022-07-06T13:34:07;4.07;;;1.92;;
11427;SDS011;5770;44.504;11.346;2022-07-06T13:36:34;7.18;;;1.98;;
11427;SDS011;5770;44.504;11.346;2022-07-06T13:39:02;1.77;;;1.67;;
11427;SDS011;5770;44.504;11.346;2022-07-06T13:41:31;2.65;;;1.40;;
11427;SDS011;5770;44.504;11.346;2022-07-06T13:43:58;4.55;;;1.75;;
11427;SDS011;5770;44.504;11.346;2022-07-06T13:46:26;5.03;;;1.90;;
11427;SDS011;5770;44.504;11.346;2022-07-06T13:48:53;5.07;;;1.65;;
11427;SDS011;5770;44.504;11.346;2022-07-06T13:51:21;4.00;;;2.03;;
11427;SDS011;5770;44.504;11.346;2022-07-06T13:53:49;5.13;;;1.85;;
11427;SDS011;5770;44.504;11.346;2022-07-06T13:56:16;3.85;;;1.80;;
11427;SDS011;5770;44.504;11.346;2022-07-06T13:58:45;2.85;;;1.90;;
11427;SDS011;5770;44.504;11.346;2022-07-06T14:01:12;2.90;;;2.00;;
11427;SDS011;5770;44.504;11.346;2022-07-06T14:03:40;2.45;;;1.60;;
11427;SDS011;5770;44.504;11.346;2022-07-06T14:06:07;3.33;;;1.98;;
11427;SDS011;5770;44.504;11.346;2022-07-06T14:08:35;2.72;;;1.50;;
11427;SDS011;5770;44.504;11.346;2022-07-06T14:11:03;3.72;;;2.05;;
11427;SDS011;5770;44.504;11.346;2022-07-06T14:13:32;2.22;;;1.60;;
11427;SDS011;5770;44.504;11.346;2022-07-06T14:16:01;4.40;;;1.50;;
11427;SDS011;5770;44.504;11.346;2022-07-06T14:18:28;2.60;;;1.92;;
11427;SDS011;5770;44.504;11.346;2022-07-06T14:20:56;2.17;;;1.60;;
11427;SDS011;5770;44.504;11.346;2022-07-06T14:23:25;1.73;;;1.60;;
11427;SDS011;5770;44.504;11.346;2022-07-06T14:25:53;2.55;;;1.33;;
11427;SDS011;5770;44.504;11.346;2022-07-06T14:28:21;4.38;;;1.52;;
11427;SDS011;5770;44.504;11.346;2022-07-06T14:30:48;4.00;;;1.60;;
11427;SDS011;5770;44.504;11.346;2022-07-06T14:33:17;2.60;;;1.50;;
11427;SDS011;5770;44.504;11.346;2022-07-06T14:35:46;3.88;;;1.60;;
11427;SDS011;5770;44.504;11.346;2022-07-06T14:38:13;2.38;;;1.40;;
11427;SDS011;5770;44.504;11.346;2022-07-06T14:40:41;4.90;;;1.73;;
11427;SDS011;5770;44.504;11.346;2022-07-06T14:43:09;2.50;;;1.40;;
11427;SDS011;5770;44.504;11.346;2022-07-06T14:45:37;1.40;;;1.30;;
11427;SDS011;5770;44.504;11.346;2022-07-06T14:48:04;2.58;;;1.30;;
11427;SDS011;5770;44.504;11.346;2022-07-06T14:50:33;1.92;;;1.50;;
11427;SDS011;5770;44.504;11.346;2022-07-06T14:53:01;2.25;;;1.40;;
11427;SDS011;5770;44.504;11.346;2022-07-06T14:55:29;2.47;;;1.20;;
11427;SDS011;5770;44.504;11.346;2022-07-06T14:57:56;3.38;;;1.40;;
11427;SDS011;5770;44.504;11.346;2022-07-06T15:00:24;3.20;;;1.30;;